sensor_id;sensor_type;location;lat;lon;timestamp;P1;durP1;ratioP1;P2;durP2;ratioP2
54921;SDS011;40824;45.116;21.296;2023-03-22T00:00:05;38.28;;;26.02;;
54921;SDS011;40824;45.116;21.296;2023-03-22T00:02:36;38.25;;;26.85;;
54921;SDS011;40824;45.116;21.296;2023-03-22T00:05:02;35.17;;;25.52;;
54921;SDS011;40824;45.116;21.296;2023-03-22T00:07:28;41.67;;;27.02;;
54921;SDS011;40824;45.116;21.296;2023-03-22T00:09:55;36.53;;;25.30;;
54921;SDS011;40824;45.116;21.296;2023-03-22T00:12:21;35.60;;;26.13;;
54921;SDS011;40824;45.116;21.296;2023-03-22T00:14:47;36.33;;;25.83;;
54921;SDS011;40824;45.116;21.296;2023-03-22T00:17:14;41.35;;;26.80;;
54921;SDS011;40824;45.116;21.296;2023-03-22T00:19:40;36.58;;;27.70;;
54921;SDS011;40824;45.116;21.296;2023-03-22T00:22:06;32.42;;;24.30;;
54921;SDS011;40824;45.116;21.296;2023-03-22T00:24:33;32.67;;;23.10;;
54921;SDS011;40824;45.116;21.296;2023-03-22T00:26:59;35.78;;;26.60;;
54921;SDS011;40824;45.116;21.296;2023-03-22T00:29:25;31.38;;;23.50;;
54921;SDS011;40824;45.116;21.296;2023-03-22T00:31:51;30.98;;;22.35;;
54921;SDS011;40824;45.116;21.296;2023-03-22T00:34:19;31.95;;;22.10;;
54921;SDS011;40824;45.116;21.296;2023-03-22T00:36:46;28.80;;;21.40;;
54921;SDS011;40824;45.116;21.296;2023-03-22T00:39:12;32.80;;;21.42;;
54921;SDS011;40824;45.116;21.296;2023-03-22T00:41:38;27.35;;;21.83;;
54921;SDS011;40824;45.116;21.296;2023-03-22T00:44:05;27.17;;;19.55;;
54921;SDS011;40824;45.116;21.296;2023-03-22T00:46:31;31.88;;;19.67;;
54921;SDS011;40824;45.116;21.296;2023-03-22T00:48:57;29.38;;;21.10;;
54921;SDS011;40824;45.116;21.296;2023-03-22T00:51:23;29.90;;;20.80;;
54921;SDS011;40824;45.116;21.296;2023-03-22T00:53:49;32.50;;;21.90;;
54921;SDS011;40824;45.116;21.296;2023-03-22T00:56:18;32.60;;;22.50;;
54921;SDS011;40824;45.116;21.296;2023-03-22T00:58:44;34.08;;;23.73;;
54921;SDS011;40824;45.116;21.296;2023-03-22T01:01:10;30.08;;;23.45;;
54921;SDS011;40824;45.116;21.296;2023-03-22T01:03:37;38.13;;;24.92;;
54921;SDS011;40824;45.116;21.296;2023-03-22T01:06:03;37.97;;;24.85;;
54921;SDS011;40824;45.116;21.296;2023-03-22T01:08:30;33.10;;;23.98;;
54921;SDS011;40824;45.116;21.296;2023-03-22T01:10:57;30.30;;;22.38;;
54921;SDS011;40824;45.116;21.296;2023-03-22T01:13:23;35.15;;;22.33;;
54921;SDS011;40824;45.116;21.296;2023-03-22T01:15:50;26.25;;;20.00;;
54921;SDS011;40824;45.116;21.296;2023-03-22T01:18:18;25.27;;;18.60;;
54921;SDS011;40824;45.116;21.296;2023-03-22T01:20:44;24.23;;;18.38;;
54921;SDS011;40824;45.116;21.296;2023-03-22T01:23:10;25.13;;;18.73;;
54921;SDS011;40824;45.116;21.296;2023-03-22T01:25:37;22.05;;;16.70;;
54921;SDS011;40824;45.116;21.296;2023-03-22T01:28:03;24.45;;;18.75;;
54921;SDS011;40824;45.116;21.296;2023-03-22T01:30:30;22.42;;;17.85;;
54921;SDS011;40824;45.116;21.296;2023-03-22T01:32:56;26.73;;;18.50;;
54921;SDS011;40824;45.116;21.296;2023-03-22T01:35:23;21.30;;;17.35;;
54921;SDS011;40824;45.116;21.296;2023-03-22T01:37:49;23.55;;;19.27;;
54921;SDS011;40824;45.116;21.296;2023-03-22T01:40:17;23.33;;;17.48;;
54921;SDS011;40824;45.116;21.296;2023-03-22T01:42:44;24.50;;;18.20;;
54921;SDS011;40824;45.116;21.296;2023-03-22T01:47:49;39.08;;;18.58;;
54921;SDS011;40824;45.116;21.296;2023-03-22T01:50:16;24.30;;;18.35;;
54921;SDS011;40824;45.116;21.296;2023-03-22T01:52:43;22.20;;;17.67;;
54921;SDS011;40824;45.116;21.296;2023-03-22T01:55:09;23.50;;;17.08;;
54921;SDS011;40824;45.116;21.296;2023-03-22T01:57:36;20.42;;;17.25;;
54921;SDS011;40824;45.116;21.296;2023-03-22T02:00:04;21.42;;;16.25;;
54921;SDS011;40824;45.116;21.296;2023-03-22T02:02:34;19.48;;;16.38;;
54921;SDS011;40824;45.116;21.296;2023-03-22T02:05:00;20.10;;;15.82;;
54921;SDS011;40824;45.116;21.296;2023-03-22T02:07:28;21.63;;;15.82;;
54921;SDS011;40824;45.116;21.296;2023-03-22T02:09:55;19.15;;;16.05;;
54921;SDS011;40824;45.116;21.296;2023-03-22T02:17:39;21.13;;;16.92;;
54921;SDS011;40824;45.116;21.296;2023-03-22T02:30:58;22.52;;;17.75;;
54921;SDS011;40824;45.116;21.296;2023-03-22T02:36:06;27.75;;;18.33;;
54921;SDS011;40824;45.116;21.296;2023-03-22T02:38:48;28.23;;;19.30;;
54921;SDS011;40824;45.116;21.296;2023-03-22T02:43:52;21.75;;;16.83;;
54921;SDS011;40824;45.116;21.296;2023-03-22T02:48:59;23.98;;;16.00;;
54921;SDS011;40824;45.116;21.296;2023-03-22T02:51:31;24.63;;;18.83;;
54921;SDS011;40824;45.116;21.296;2023-03-22T02:54:01;27.55;;;19.17;;
54921;SDS011;40824;45.116;21.296;2023-03-22T02:56:46;26.70;;;18.35;;
54921;SDS011;40824;45.116;21.296;2023-03-22T02:59:13;22.13;;;17.00;;
54921;SDS011;40824;45.116;21.296;2023-03-22T03:01:45;23.33;;;17.75;;
54921;SDS011;40824;45.116;21.296;2023-03-22T03:04:16;20.23;;;15.23;;
54921;SDS011;40824;45.116;21.296;2023-03-22T03:06:43;22.15;;;16.48;;
54921;SDS011;40824;45.116;21.296;2023-03-22T03:09:12;21.30;;;16.70;;
54921;SDS011;40824;45.116;21.296;2023-03-22T03:11:42;21.25;;;17.52;;
54921;SDS011;40824;45.116;21.296;2023-03-22T03:14:18;21.00;;;17.10;;
54921;SDS011;40824;45.116;21.296;2023-03-22T03:16:44;25.02;;;17.17;;
54921;SDS011;40824;45.116;21.296;2023-03-22T03:19:16;24.95;;;18.25;;
54921;SDS011;40824;45.116;21.296;2023-03-22T03:21:50;25.48;;;17.73;;
54921;SDS011;40824;45.116;21.296;2023-03-22T03:24:28;29.35;;;18.27;;
54921;SDS011;40824;45.116;21.296;2023-03-22T03:27:00;24.52;;;18.90;;
54921;SDS011;40824;45.116;21.296;2023-03-22T03:32:00;21.65;;;17.40;;
54921;SDS011;40824;45.116;21.296;2023-03-22T03:37:01;25.33;;;18.58;;
54921;SDS011;40824;45.116;21.296;2023-03-22T03:39:29;26.33;;;17.95;;
54921;SDS011;40824;45.116;21.296;2023-03-22T03:41:57;24.90;;;18.35;;
54921;SDS011;40824;45.116;21.296;2023-03-22T03:44:24;25.13;;;17.73;;
54921;SDS011;40824;45.116;21.296;2023-03-22T03:46:51;22.85;;;18.05;;
54921;SDS011;40824;45.116;21.296;2023-03-22T03:49:17;28.23;;;18.13;;
54921;SDS011;40824;45.116;21.296;2023-03-22T03:51:45;22.58;;;17.65;;
54921;SDS011;40824;45.116;21.296;2023-03-22T03:54:12;25.52;;;17.67;;
54921;SDS011;40824;45.116;21.296;2023-03-22T03:56:38;25.70;;;18.05;;
54921;SDS011;40824;45.116;21.296;2023-03-22T03:59:04;24.55;;;18.60;;
54921;SDS011;40824;45.116;21.296;2023-03-22T04:01:32;19.77;;;14.57;;
54921;SDS011;40824;45.116;21.296;2023-03-22T04:03:59;24.27;;;14.80;;
54921;SDS011;40824;45.116;21.296;2023-03-22T04:06:25;19.67;;;14.27;;
54921;SDS011;40824;45.116;21.296;2023-03-22T04:08:51;20.23;;;13.95;;
54921;SDS011;40824;45.116;21.296;2023-03-22T04:11:18;18.17;;;15.02;;
54921;SDS011;40824;45.116;21.296;2023-03-22T04:13:44;22.02;;;16.40;;
54921;SDS011;40824;45.116;21.296;2023-03-22T04:16:10;18.45;;;14.85;;
54921;SDS011;40824;45.116;21.296;2023-03-22T04:18:37;20.05;;;15.35;;
54921;SDS011;40824;45.116;21.296;2023-03-22T04:21:03;21.98;;;16.38;;
54921;SDS011;40824;45.116;21.296;2023-03-22T04:23:31;21.50;;;14.15;;
54921;SDS011;40824;45.116;21.296;2023-03-22T04:25:58;21.20;;;14.98;;
54921;SDS011;40824;45.116;21.296;2023-03-22T04:28:25;17.90;;;13.60;;
54921;SDS011;40824;45.116;21.296;2023-03-22T04:30:51;20.77;;;13.82;;
54921;SDS011;40824;45.116;21.296;2023-03-22T04:33:18;18.25;;;14.90;;
54921;SDS011;40824;45.116;21.296;2023-03-22T04:35:46;17.45;;;13.73;;
54921;SDS011;40824;45.116;21.296;2023-03-22T04:38:12;19.48;;;14.50;;
54921;SDS011;40824;45.116;21.296;2023-03-22T04:40:39;19.88;;;14.63;;
54921;SDS011;40824;45.116;21.296;2023-03-22T04:43:11;26.02;;;18.30;;
54921;SDS011;40824;45.116;21.296;2023-03-22T04:45:37;19.02;;;15.25;;
54921;SDS011;40824;45.116;21.296;2023-03-22T04:48:04;19.38;;;14.32;;
54921;SDS011;40824;45.116;21.296;2023-03-22T04:50:31;23.30;;;14.43;;
54921;SDS011;40824;45.116;21.296;2023-03-22T04:52:58;23.63;;;14.93;;
54921;SDS011;40824;45.116;21.296;2023-03-22T04:55:24;17.58;;;14.27;;
54921;SDS011;40824;45.116;21.296;2023-03-22T04:57:51;19.88;;;15.52;;
54921;SDS011;40824;45.116;21.296;2023-03-22T05:00:18;23.83;;;16.13;;
54921;SDS011;40824;45.116;21.296;2023-03-22T05:02:45;22.95;;;16.08;;
54921;SDS011;40824;45.116;21.296;2023-03-22T05:05:13;22.17;;;16.15;;
54921;SDS011;40824;45.116;21.296;2023-03-22T05:07:39;22.50;;;16.25;;
54921;SDS011;40824;45.116;21.296;2023-03-22T05:10:06;23.80;;;15.60;;
54921;SDS011;40824;45.116;21.296;2023-03-22T05:12:32;22.50;;;16.35;;
54921;SDS011;40824;45.116;21.296;2023-03-22T05:14:58;22.10;;;15.80;;
54921;SDS011;40824;45.116;21.296;2023-03-22T05:17:27;24.20;;;16.63;;
54921;SDS011;40824;45.116;21.296;2023-03-22T05:19:53;20.65;;;16.15;;
54921;SDS011;40824;45.116;21.296;2023-03-22T05:22:19;22.55;;;16.02;;
54921;SDS011;40824;45.116;21.296;2023-03-22T05:24:46;19.92;;;15.82;;
54921;SDS011;40824;45.116;21.296;2023-03-22T05:27:12;22.67;;;15.60;;
54921;SDS011;40824;45.116;21.296;2023-03-22T05:29:38;22.65;;;15.75;;
54921;SDS011;40824;45.116;21.296;2023-03-22T05:32:09;19.02;;;14.73;;
54921;SDS011;40824;45.116;21.296;2023-03-22T05:34:35;19.50;;;14.70;;
54921;SDS011;40824;45.116;21.296;2023-03-22T05:37:02;23.25;;;15.02;;
54921;SDS011;40824;45.116;21.296;2023-03-22T05:39:28;20.40;;;14.07;;
54921;SDS011;40824;45.116;21.296;2023-03-22T05:41:54;18.25;;;14.93;;
54921;SDS011;40824;45.116;21.296;2023-03-22T05:44:20;27.05;;;15.80;;
54921;SDS011;40824;45.116;21.296;2023-03-22T05:46:46;21.80;;;15.10;;
54921;SDS011;40824;45.116;21.296;2023-03-22T05:49:13;18.17;;;14.20;;
54921;SDS011;40824;45.116;21.296;2023-03-22T05:51:39;20.33;;;13.70;;
54921;SDS011;40824;45.116;21.296;2023-03-22T05:54:07;15.82;;;12.68;;
54921;SDS011;40824;45.116;21.296;2023-03-22T05:56:33;19.92;;;13.98;;
54921;SDS011;40824;45.116;21.296;2023-03-22T05:59:00;16.67;;;13.25;;
54921;SDS011;40824;45.116;21.296;2023-03-22T06:01:26;27.27;;;16.65;;
54921;SDS011;40824;45.116;21.296;2023-03-22T06:03:53;20.00;;;14.25;;
54921;SDS011;40824;45.116;21.296;2023-03-22T06:06:19;17.48;;;14.43;;
54921;SDS011;40824;45.116;21.296;2023-03-22T06:08:45;20.73;;;15.32;;
54921;SDS011;40824;45.116;21.296;2023-03-22T06:11:11;22.35;;;14.32;;
54921;SDS011;40824;45.116;21.296;2023-03-22T06:13:37;18.33;;;12.65;;
54921;SDS011;40824;45.116;21.296;2023-03-22T06:16:04;20.33;;;13.48;;
54921;SDS011;40824;45.116;21.296;2023-03-22T06:18:30;17.17;;;13.38;;
54921;SDS011;40824;45.116;21.296;2023-03-22T06:20:58;19.30;;;12.95;;
54921;SDS011;40824;45.116;21.296;2023-03-22T06:23:24;24.75;;;17.08;;
54921;SDS011;40824;45.116;21.296;2023-03-22T06:25:50;13.35;;;11.50;;
54921;SDS011;40824;45.116;21.296;2023-03-22T06:28:16;16.10;;;12.27;;
54921;SDS011;40824;45.116;21.296;2023-03-22T06:30:43;13.70;;;11.68;;
54921;SDS011;40824;45.116;21.296;2023-03-22T06:33:09;15.52;;;12.13;;
54921;SDS011;40824;45.116;21.296;2023-03-22T06:35:35;18.23;;;12.90;;
54921;SDS011;40824;45.116;21.296;2023-03-22T06:38:01;20.65;;;13.77;;
54921;SDS011;40824;45.116;21.296;2023-03-22T06:40:27;20.00;;;12.50;;
54921;SDS011;40824;45.116;21.296;2023-03-22T06:42:53;17.85;;;12.35;;
54921;SDS011;40824;45.116;21.296;2023-03-22T06:45:20;15.00;;;12.15;;
54921;SDS011;40824;45.116;21.296;2023-03-22T06:47:46;15.02;;;11.82;;
54921;SDS011;40824;45.116;21.296;2023-03-22T06:50:14;24.85;;;12.93;;
54921;SDS011;40824;45.116;21.296;2023-03-22T06:52:40;16.05;;;12.77;;
54921;SDS011;40824;45.116;21.296;2023-03-22T06:55:06;16.00;;;13.10;;
54921;SDS011;40824;45.116;21.296;2023-03-22T06:57:32;15.25;;;12.65;;
54921;SDS011;40824;45.116;21.296;2023-03-22T06:59:58;14.20;;;12.52;;
54921;SDS011;40824;45.116;21.296;2023-03-22T07:02:25;16.17;;;12.95;;
54921;SDS011;40824;45.116;21.296;2023-03-22T07:04:51;17.83;;;12.27;;
54921;SDS011;40824;45.116;21.296;2023-03-22T07:07:17;15.30;;;12.48;;
54921;SDS011;40824;45.116;21.296;2023-03-22T07:09:43;17.90;;;12.70;;
54921;SDS011;40824;45.116;21.296;2023-03-22T07:12:09;21.52;;;12.60;;
54921;SDS011;40824;45.116;21.296;2023-03-22T07:14:35;15.32;;;11.30;;
54921;SDS011;40824;45.116;21.296;2023-03-22T07:17:01;15.13;;;13.35;;
54921;SDS011;40824;45.116;21.296;2023-03-22T07:19:27;17.30;;;12.23;;
54921;SDS011;40824;45.116;21.296;2023-03-22T07:21:53;16.38;;;12.73;;
54921;SDS011;40824;45.116;21.296;2023-03-22T07:24:19;19.05;;;12.80;;
54921;SDS011;40824;45.116;21.296;2023-03-22T07:26:46;24.15;;;12.85;;
54921;SDS011;40824;45.116;21.296;2023-03-22T07:29:12;16.60;;;13.45;;
54921;SDS011;40824;45.116;21.296;2023-03-22T07:31:38;25.77;;;13.82;;
54921;SDS011;40824;45.116;21.296;2023-03-22T07:34:04;18.20;;;12.10;;
54921;SDS011;40824;45.116;21.296;2023-03-22T07:36:30;14.63;;;12.82;;
54921;SDS011;40824;45.116;21.296;2023-03-22T07:38:56;16.90;;;12.15;;
54921;SDS011;40824;45.116;21.296;2023-03-22T07:41:23;22.50;;;12.98;;
54921;SDS011;40824;45.116;21.296;2023-03-22T07:43:58;16.52;;;11.80;;
54921;SDS011;40824;45.116;21.296;2023-03-22T07:46:26;13.77;;;11.30;;
54921;SDS011;40824;45.116;21.296;2023-03-22T07:48:52;14.52;;;12.13;;
54921;SDS011;40824;45.116;21.296;2023-03-22T07:51:18;13.27;;;11.98;;
54921;SDS011;40824;45.116;21.296;2023-03-22T07:53:44;16.00;;;11.52;;
54921;SDS011;40824;45.116;21.296;2023-03-22T07:56:11;15.88;;;11.32;;
54921;SDS011;40824;45.116;21.296;2023-03-22T07:58:37;14.20;;;11.95;;
54921;SDS011;40824;45.116;21.296;2023-03-22T08:01:04;14.35;;;12.85;;
54921;SDS011;40824;45.116;21.296;2023-03-22T08:03:33;12.73;;;11.43;;
54921;SDS011;40824;45.116;21.296;2023-03-22T08:06:00;17.20;;;11.82;;
54921;SDS011;40824;45.116;21.296;2023-03-22T08:08:30;13.57;;;11.23;;
54921;SDS011;40824;45.116;21.296;2023-03-22T08:10:56;14.18;;;12.07;;
54921;SDS011;40824;45.116;21.296;2023-03-22T08:13:22;18.88;;;13.35;;
54921;SDS011;40824;45.116;21.296;2023-03-22T08:15:48;25.67;;;13.57;;
54921;SDS011;40824;45.116;21.296;2023-03-22T08:18:14;18.30;;;12.93;;
54921;SDS011;40824;45.116;21.296;2023-03-22T08:20:40;17.67;;;13.25;;
54921;SDS011;40824;45.116;21.296;2023-03-22T08:23:09;17.83;;;13.73;;
54921;SDS011;40824;45.116;21.296;2023-03-22T08:25:39;23.13;;;13.30;;
54921;SDS011;40824;45.116;21.296;2023-03-22T08:28:06;17.58;;;13.77;;
54921;SDS011;40824;45.116;21.296;2023-03-22T08:30:32;23.83;;;12.90;;
54921;SDS011;40824;45.116;21.296;2023-03-22T08:32:58;18.88;;;13.43;;
54921;SDS011;40824;45.116;21.296;2023-03-22T08:35:24;22.42;;;14.60;;
54921;SDS011;40824;45.116;21.296;2023-03-22T08:37:53;25.60;;;13.65;;
54921;SDS011;40824;45.116;21.296;2023-03-22T08:40:20;17.13;;;13.70;;
54921;SDS011;40824;45.116;21.296;2023-03-22T08:42:47;27.08;;;14.98;;
54921;SDS011;40824;45.116;21.296;2023-03-22T08:45:13;22.95;;;14.70;;
54921;SDS011;40824;45.116;21.296;2023-03-22T08:47:42;30.17;;;16.58;;
54921;SDS011;40824;45.116;21.296;2023-03-22T08:50:11;25.92;;;15.05;;
54921;SDS011;40824;45.116;21.296;2023-03-22T08:52:38;24.08;;;14.57;;
54921;SDS011;40824;45.116;21.296;2023-03-22T08:55:04;21.95;;;15.00;;
54921;SDS011;40824;45.116;21.296;2023-03-22T08:57:32;22.33;;;14.50;;
54921;SDS011;40824;45.116;21.296;2023-03-22T08:59:59;18.25;;;14.07;;
54921;SDS011;40824;45.116;21.296;2023-03-22T09:02:26;18.70;;;14.48;;
54921;SDS011;40824;45.116;21.296;2023-03-22T09:04:52;18.75;;;14.65;;
54921;SDS011;40824;45.116;21.296;2023-03-22T09:07:18;22.33;;;15.63;;
54921;SDS011;40824;45.116;21.296;2023-03-22T09:09:45;19.67;;;13.48;;
54921;SDS011;40824;45.116;21.296;2023-03-22T09:12:11;19.80;;;14.50;;
54921;SDS011;40824;45.116;21.296;2023-03-22T09:14:37;21.25;;;15.32;;
54921;SDS011;40824;45.116;21.296;2023-03-22T09:17:03;26.13;;;15.73;;
54921;SDS011;40824;45.116;21.296;2023-03-22T09:19:29;27.27;;;14.98;;
54921;SDS011;40824;45.116;21.296;2023-03-22T09:21:56;22.42;;;15.20;;
54921;SDS011;40824;45.116;21.296;2023-03-22T09:24:22;25.55;;;16.65;;
54921;SDS011;40824;45.116;21.296;2023-03-22T09:26:48;26.70;;;14.75;;
54921;SDS011;40824;45.116;21.296;2023-03-22T09:29:15;23.25;;;14.25;;
54921;SDS011;40824;45.116;21.296;2023-03-22T09:31:41;20.98;;;14.00;;
54921;SDS011;40824;45.116;21.296;2023-03-22T09:34:08;23.83;;;13.77;;
54921;SDS011;40824;45.116;21.296;2023-03-22T09:36:34;23.50;;;14.82;;
54921;SDS011;40824;45.116;21.296;2023-03-22T09:39:01;26.23;;;15.40;;
54921;SDS011;40824;45.116;21.296;2023-03-22T09:43:57;22.23;;;13.98;;
54921;SDS011;40824;45.116;21.296;2023-03-22T09:46:28;18.83;;;14.13;;
54921;SDS011;40824;45.116;21.296;2023-03-22T09:48:55;35.38;;;14.60;;
54921;SDS011;40824;45.116;21.296;2023-03-22T09:53:54;15.60;;;13.63;;
54921;SDS011;40824;45.116;21.296;2023-03-22T09:56:41;21.80;;;14.93;;
54921;SDS011;40824;45.116;21.296;2023-03-22T09:59:16;16.10;;;13.15;;
54921;SDS011;40824;45.116;21.296;2023-03-22T10:01:53;15.68;;;12.98;;
54921;SDS011;40824;45.116;21.296;2023-03-22T10:18:01;20.05;;;12.93;;
54921;SDS011;40824;45.116;21.296;2023-03-22T10:22:54;15.00;;;13.23;;
54921;SDS011;40824;45.116;21.296;2023-03-22T10:25:23;32.63;;;13.60;;
54921;SDS011;40824;45.116;21.296;2023-03-22T10:27:51;14.77;;;12.98;;
54921;SDS011;40824;45.116;21.296;2023-03-22T10:35:13;21.77;;;14.30;;
54921;SDS011;40824;45.116;21.296;2023-03-22T10:37:39;14.63;;;13.07;;
54921;SDS011;40824;45.116;21.296;2023-03-22T10:40:09;14.45;;;12.95;;
54921;SDS011;40824;45.116;21.296;2023-03-22T10:42:42;14.00;;;12.68;;
54921;SDS011;40824;45.116;21.296;2023-03-22T10:45:15;17.38;;;13.40;;
54921;SDS011;40824;45.116;21.296;2023-03-22T10:50:32;12.73;;;11.43;;
54921;SDS011;40824;45.116;21.296;2023-03-22T10:55:25;14.23;;;12.88;;
54921;SDS011;40824;45.116;21.296;2023-03-22T10:58:00;13.15;;;11.77;;
54921;SDS011;40824;45.116;21.296;2023-03-22T11:00:33;16.75;;;13.05;;
54921;SDS011;40824;45.116;21.296;2023-03-22T11:02:59;15.50;;;12.88;;
54921;SDS011;40824;45.116;21.296;2023-03-22T11:05:28;11.82;;;10.73;;
54921;SDS011;40824;45.116;21.296;2023-03-22T11:07:55;11.70;;;10.55;;
54921;SDS011;40824;45.116;21.296;2023-03-22T11:10:29;9.98;;;9.07;;
54921;SDS011;40824;45.116;21.296;2023-03-22T11:15:35;10.20;;;9.02;;
54921;SDS011;40824;45.116;21.296;2023-03-22T11:18:05;14.30;;;9.60;;
54921;SDS011;40824;45.116;21.296;2023-03-22T11:20:32;10.20;;;9.20;;
54921;SDS011;40824;45.116;21.296;2023-03-22T11:22:59;16.85;;;10.43;;
54921;SDS011;40824;45.116;21.296;2023-03-22T11:25:29;10.68;;;9.55;;
54921;SDS011;40824;45.116;21.296;2023-03-22T11:28:07;17.25;;;10.82;;
54921;SDS011;40824;45.116;21.296;2023-03-22T11:30:34;12.52;;;9.70;;
54921;SDS011;40824;45.116;21.296;2023-03-22T11:35:34;12.43;;;8.55;;
54921;SDS011;40824;45.116;21.296;2023-03-22T11:38:01;10.75;;;9.65;;
54921;SDS011;40824;45.116;21.296;2023-03-22T11:40:29;9.98;;;8.93;;
54921;SDS011;40824;45.116;21.296;2023-03-22T11:45:35;10.25;;;7.07;;
54921;SDS011;40824;45.116;21.296;2023-03-22T11:48:06;8.98;;;6.90;;
54921;SDS011;40824;45.116;21.296;2023-03-22T11:50:37;11.93;;;8.38;;
54921;SDS011;40824;45.116;21.296;2023-03-22T11:53:06;8.05;;;7.13;;
54921;SDS011;40824;45.116;21.296;2023-03-22T11:55:36;9.40;;;6.75;;
54921;SDS011;40824;45.116;21.296;2023-03-22T11:58:02;9.10;;;7.35;;
54921;SDS011;40824;45.116;21.296;2023-03-22T12:00:29;10.77;;;6.63;;
54921;SDS011;40824;45.116;21.296;2023-03-22T12:03:04;12.18;;;7.63;;
54921;SDS011;40824;45.116;21.296;2023-03-22T12:05:30;9.13;;;7.35;;
54921;SDS011;40824;45.116;21.296;2023-03-22T12:10:41;8.82;;;7.28;;
54921;SDS011;40824;45.116;21.296;2023-03-22T12:13:20;8.32;;;7.43;;
54921;SDS011;40824;45.116;21.296;2023-03-22T12:15:49;8.35;;;7.45;;
54921;SDS011;40824;45.116;21.296;2023-03-22T12:18:18;7.78;;;6.97;;
54921;SDS011;40824;45.116;21.296;2023-03-22T12:20:59;8.85;;;6.32;;
54921;SDS011;40824;45.116;21.296;2023-03-22T12:23:26;10.70;;;6.25;;
54921;SDS011;40824;45.116;21.296;2023-03-22T12:25:57;8.70;;;6.15;;
54921;SDS011;40824;45.116;21.296;2023-03-22T12:28:27;7.70;;;6.63;;
54921;SDS011;40824;45.116;21.296;2023-03-22T12:30:53;9.07;;;6.40;;
54921;SDS011;40824;45.116;21.296;2023-03-22T12:33:26;10.90;;;6.63;;
54921;SDS011;40824;45.116;21.296;2023-03-22T12:35:56;10.40;;;6.72;;
54921;SDS011;40824;45.116;21.296;2023-03-22T12:38:28;11.38;;;10.20;;
54921;SDS011;40824;45.116;21.296;2023-03-22T12:40:59;16.83;;;13.30;;
54921;SDS011;40824;45.116;21.296;2023-03-22T12:43:33;18.50;;;16.60;;
54921;SDS011;40824;45.116;21.296;2023-03-22T12:46:03;16.65;;;14.90;;
54921;SDS011;40824;45.116;21.296;2023-03-22T12:51:00;12.75;;;9.13;;
54921;SDS011;40824;45.116;21.296;2023-03-22T12:53:29;10.80;;;8.48;;
54921;SDS011;40824;45.116;21.296;2023-03-22T12:55:56;10.40;;;7.85;;
54921;SDS011;40824;45.116;21.296;2023-03-22T12:58:23;12.93;;;7.95;;
54921;SDS011;40824;45.116;21.296;2023-03-22T13:00:54;8.75;;;7.85;;
54921;SDS011;40824;45.116;21.296;2023-03-22T13:03:35;9.65;;;7.05;;
54921;SDS011;40824;45.116;21.296;2023-03-22T13:06:03;9.80;;;6.78;;
54921;SDS011;40824;45.116;21.296;2023-03-22T13:08:59;11.05;;;7.53;;
54921;SDS011;40824;45.116;21.296;2023-03-22T13:11:22;9.98;;;7.75;;
54921;SDS011;40824;45.116;21.296;2023-03-22T13:13:49;9.80;;;8.00;;
54921;SDS011;40824;45.116;21.296;2023-03-22T13:16:16;12.45;;;8.23;;
54921;SDS011;40824;45.116;21.296;2023-03-22T13:21:16;11.15;;;8.95;;
54921;SDS011;40824;45.116;21.296;2023-03-22T13:26:45;9.82;;;7.13;;
54921;SDS011;40824;45.116;21.296;2023-03-22T13:29:18;12.90;;;8.18;;
54921;SDS011;40824;45.116;21.296;2023-03-22T13:34:16;10.98;;;7.13;;
54921;SDS011;40824;45.116;21.296;2023-03-22T13:36:53;9.63;;;7.50;;
54921;SDS011;40824;45.116;21.296;2023-03-22T13:39:20;9.95;;;7.15;;
54921;SDS011;40824;45.116;21.296;2023-03-22T13:41:59;10.93;;;9.07;;
54921;SDS011;40824;45.116;21.296;2023-03-22T13:44:29;16.33;;;9.00;;
54921;SDS011;40824;45.116;21.296;2023-03-22T13:46:59;10.75;;;7.65;;
54921;SDS011;40824;45.116;21.296;2023-03-22T13:51:52;12.90;;;8.93;;
54921;SDS011;40824;45.116;21.296;2023-03-22T13:54:20;11.32;;;8.82;;
54921;SDS011;40824;45.116;21.296;2023-03-22T13:56:55;13.63;;;8.90;;
54921;SDS011;40824;45.116;21.296;2023-03-22T14:04:18;14.13;;;12.63;;
54921;SDS011;40824;45.116;21.296;2023-03-22T14:06:54;15.20;;;13.70;;
54921;SDS011;40824;45.116;21.296;2023-03-22T14:09:24;14.27;;;11.10;;
54921;SDS011;40824;45.116;21.296;2023-03-22T14:12:01;16.25;;;11.15;;
54921;SDS011;40824;45.116;21.296;2023-03-22T14:14:31;14.20;;;11.23;;
54921;SDS011;40824;45.116;21.296;2023-03-22T14:19:23;11.70;;;9.25;;
54921;SDS011;40824;45.116;21.296;2023-03-22T14:21:52;13.32;;;10.38;;
54921;SDS011;40824;45.116;21.296;2023-03-22T14:24:20;13.85;;;10.05;;
54921;SDS011;40824;45.116;21.296;2023-03-22T14:26:52;14.20;;;9.32;;
54921;SDS011;40824;45.116;21.296;2023-03-22T14:29:19;13.90;;;9.50;;
54921;SDS011;40824;45.116;21.296;2023-03-22T14:31:53;10.63;;;8.90;;
54921;SDS011;40824;45.116;21.296;2023-03-22T14:34:21;14.98;;;9.75;;
54921;SDS011;40824;45.116;21.296;2023-03-22T14:36:48;14.70;;;9.30;;
54921;SDS011;40824;45.116;21.296;2023-03-22T14:39:20;12.60;;;9.23;;
54921;SDS011;40824;45.116;21.296;2023-03-22T14:47:09;10.38;;;9.27;;
54921;SDS011;40824;45.116;21.296;2023-03-22T14:49:39;16.15;;;12.55;;
54921;SDS011;40824;45.116;21.296;2023-03-22T14:52:08;12.77;;;11.32;;
54921;SDS011;40824;45.116;21.296;2023-03-22T14:54:37;12.95;;;10.25;;
54921;SDS011;40824;45.116;21.296;2023-03-22T14:57:08;11.93;;;9.55;;
54921;SDS011;40824;45.116;21.296;2023-03-22T14:59:35;11.88;;;9.23;;
54921;SDS011;40824;45.116;21.296;2023-03-22T15:04:53;11.10;;;9.93;;
54921;SDS011;40824;45.116;21.296;2023-03-22T15:07:19;11.77;;;9.48;;
54921;SDS011;40824;45.116;21.296;2023-03-22T15:09:46;14.82;;;9.25;;
54921;SDS011;40824;45.116;21.296;2023-03-22T15:12:12;14.02;;;9.90;;
54921;SDS011;40824;45.116;21.296;2023-03-22T15:14:41;14.48;;;9.80;;
54921;SDS011;40824;45.116;21.296;2023-03-22T15:17:08;11.57;;;9.60;;
54921;SDS011;40824;45.116;21.296;2023-03-22T15:19:46;15.65;;;9.70;;
54921;SDS011;40824;45.116;21.296;2023-03-22T15:22:14;11.10;;;9.00;;
54921;SDS011;40824;45.116;21.296;2023-03-22T15:25:00;15.27;;;10.02;;
54921;SDS011;40824;45.116;21.296;2023-03-22T15:27:28;19.38;;;11.43;;
54921;SDS011;40824;45.116;21.296;2023-03-22T15:30:04;19.58;;;10.80;;
54921;SDS011;40824;45.116;21.296;2023-03-22T15:32:49;14.82;;;12.98;;
54921;SDS011;40824;45.116;21.296;2023-03-22T15:35:16;13.45;;;10.73;;
54921;SDS011;40824;45.116;21.296;2023-03-22T15:37:51;11.90;;;10.10;;
54921;SDS011;40824;45.116;21.296;2023-03-22T15:40:56;15.55;;;9.52;;
54921;SDS011;40824;45.116;21.296;2023-03-22T15:43:17;12.98;;;9.57;;
54921;SDS011;40824;45.116;21.296;2023-03-22T15:48:39;16.33;;;10.85;;
54921;SDS011;40824;45.116;21.296;2023-03-22T15:53:33;16.08;;;10.32;;
54921;SDS011;40824;45.116;21.296;2023-03-22T15:56:00;12.38;;;9.50;;
54921;SDS011;40824;45.116;21.296;2023-03-22T15:58:32;12.52;;;9.48;;
54921;SDS011;40824;45.116;21.296;2023-03-22T16:01:06;13.00;;;9.68;;
54921;SDS011;40824;45.116;21.296;2023-03-22T16:04:08;11.27;;;9.00;;
54921;SDS011;40824;45.116;21.296;2023-03-22T16:06:26;11.88;;;9.90;;